Time;durP1;ratioP1;P1;durP2;ratioP2;P2;SDS_P1;SDS_P2;PMS_P1;PMS_P2;Temp;Humidity;BMP_temperature;BMP_pressure;BME280_temperature;BME280_humidity;BME280_pressure;Samples;Min_cycle;Max_cycle;Signal;HPM_P1;HPM_P2
2023/05/16 00:02:25;;;;;;;4.20;1.20;;;;;;;;;;5092107;28;20422;-76
2023/05/16 00:04:51;;;;;;;4.45;0.88;;;;;;;;;;5091984;28;20147;-75
2023/05/16 00:07:17;;;;;;;6.10;1.70;;;;;;;;;;5092432;28;20024;-75
2023/05/16 00:09:43;;;;;;;7.18;1.10;;;;;;;;;;5092334;28;20020;-75
2023/05/16 00:12:10;;;;;;;8.07;1.08;;;;;;;;;;5091834;28;20412;-75
2023/05/16 00:14:42;;;;;;;10.68;1.15;;;;;;;;;;5092220;28;20360;-75
2023/05/16 00:17:10;;;;;;;10.13;1.77;;;;;;;;;;5090712;28;20094;-75
2023/05/16 00:19:36;;;;;;;4.80;1.08;;;;;;;;;;5092210;28;20552;-75
2023/05/16 00:22:03;;;;;;;7.93;1.40;;;;;;;;;;5091913;28;20024;-76
2023/05/16 00:24:29;;;;;;;8.18;1.30;;;;;;;;;;5092251;28;20024;-75
2023/05/16 00:26:55;;;;;;;4.75;0.95;;;;;;;;;;5078875;28;20052;-75
2023/05/16 00:29:23;;;;;;;6.93;1.08;;;;;;;;;;5091985;28;20101;-75
2023/05/16 00:31:49;;;;;;;7.30;1.20;;;;;;;;;;5092135;28;20081;-76
2023/05/16 00:34:15;;;;;;;4.78;1.25;;;;;;;;;;5092092;28;20454;-75
2023/05/16 00:36:41;;;;;;;4.53;0.75;;;;;;;;;;5091798;28;20020;-75
2023/05/16 00:39:10;;;;;;;5.72;1.00;;;;;;;;;;5091978;28;20027;-75
2023/05/16 00:41:36;;;;;;;3.50;1.25;;;;;;;;;;5092241;28;20107;-75
2023/05/16 00:44:02;;;;;;;4.70;1.20;;;;;;;;;;5073640;28;20031;-75
2023/05/16 00:46:28;;;;;;;9.38;1.65;;;;;;;;;;5092557;28;20375;-75
2023/05/16 00:48:54;;;;;;;9.85;2.30;;;;;;;;;;5095738;28;20115;-75
2023/05/16 00:51:20;;;;;;;4.15;0.90;;;;;;;;;;5077164;28;20050;-75
2023/05/16 00:53:47;;;;;;;5.18;1.25;;;;;;;;;;5095501;28;20099;-75
2023/05/16 00:56:13;;;;;;;6.13;1.17;;;;;;;;;;5095509;28;20016;-75
2023/05/16 00:58:39;;;;;;;6.07;1.02;;;;;;;;;;5095415;28;20040;-75
2023/05/16 01:01:06;;;;;;;9.73;1.40;;;;;;;;;;5095395;28;20445;-75
2023/05/16 01:03:33;;;;;;;9.27;1.42;;;;;;;;;;5095667;28;20020;-75
2023/05/16 01:05:59;;;;;;;7.43;1.08;;;;;;;;;;5095529;28;20065;-75
2023/05/16 01:08:25;;;;;;;5.47;1.58;;;;;;;;;;5095331;28;20627;-75
2023/05/16 01:10:57;;;;;;;8.27;1.38;;;;;;;;;;5066342;28;20021;-75
2023/05/16 01:13:46;;;;;;;6.97;1.30;;;;;;;;;;5093714;28;20024;-75
2023/05/16 01:16:33;;;;;;;5.15;1.27;;;;;;;;;;5047894;28;20124;-75
2023/05/16 01:19:17;;;;;;;3.42;1.02;;;;;;;;;;5076553;28;20146;-75
2023/05/16 01:21:43;;;;;;;3.70;0.95;;;;;;;;;;5095067;28;20034;-75
2023/05/16 01:24:15;;;;;;;8.50;1.80;;;;;;;;;;5095203;28;20024;-76
2023/05/16 01:26:41;;;;;;;9.18;1.40;;;;;;;;;;5095187;28;20520;-75
2023/05/16 01:29:07;;;;;;;8.20;1.45;;;;;;;;;;5095065;28;20016;-75
2023/05/16 01:31:33;;;;;;;8.20;1.92;;;;;;;;;;5094693;28;20035;-75
2023/05/16 01:33:59;;;;;;;6.82;1.65;;;;;;;;;;5094672;28;20028;-75
2023/05/16 01:36:34;;;;;;;8.65;1.48;;;;;;;;;;5094554;28;20122;-75
2023/05/16 01:39:02;;;;;;;8.82;1.40;;;;;;;;;;5081641;28;20032;-75
2023/05/16 01:41:40;;;;;;;6.20;1.30;;;;;;;;;;5088767;28;20046;-75
2023/05/16 01:44:10;;;;;;;9.88;1.40;;;;;;;;;;5094674;28;20088;-75
2023/05/16 01:46:36;;;;;;;;;;;;;;;;;;5095309;28;20078;-75
2023/05/16 01:49:15;;;;;;;7.97;1.65;;;;;;;;;;5094519;28;19904;-75
2023/05/16 01:51:42;;;;;;;17.10;2.85;;;;;;;;;;5094676;28;20095;-75
2023/05/16 01:54:10;;;;;;;17.17;2.10;;;;;;;;;;5094347;28;20530;-75
2023/05/16 01:56:37;;;;;;;12.45;1.80;;;;;;;;;;5094153;28;20467;-75
2023/05/16 01:59:03;;;;;;;3.78;0.90;;;;;;;;;;5094117;28;20036;-75
2023/05/16 02:01:30;;;;;;;7.13;1.52;;;;;;;;;;5094126;28;20024;-75
2023/05/16 02:03:56;;;;;;;5.80;0.90;;;;;;;;;;5088365;28;20023;-75
2023/05/16 02:06:24;;;;;;;11.07;1.65;;;;;;;;;;5094122;28;20094;-75
2023/05/16 02:08:51;;;;;;;6.75;1.02;;;;;;;;;;5075934;28;20058;-75
2023/05/16 02:11:17;;;;;;;6.30;1.60;;;;;;;;;;5094270;28;20020;-75
2023/05/16 02:13:43;;;;;;;5.65;1.13;;;;;;;;;;5094010;28;20024;-75
2023/05/16 02:16:10;;;;;;;6.82;1.08;;;;;;;;;;5092396;28;20079;-76
2023/05/16 02:18:36;;;;;;;8.55;1.45;;;;;;;;;;5075441;28;20390;-75
2023/05/16 02:21:02;;;;;;;5.10;1.00;;;;;;;;;;5088499;28;20033;-75
2023/05/16 02:23:28;;;;;;;6.25;1.00;;;;;;;;;;5085619;28;20020;-75
2023/05/16 02:25:54;;;;;;;7.72;1.42;;;;;;;;;;5093981;28;20059;-75
2023/05/16 02:28:20;;;;;;;8.13;1.27;;;;;;;;;;5093743;28;20478;-75
2023/05/16 02:30:55;;;;;;;5.88;0.95;;;;;;;;;;5093535;28;20020;-75
2023/05/16 02:33:21;;;;;;;5.28;1.02;;;;;;;;;;5093838;28;20398;-75
2023/05/16 02:35:47;;;;;;;8.00;1.38;;;;;;;;;;5093470;28;20028;-75
2023/05/16 02:38:16;;;;;;;8.60;1.98;;;;;;;;;;5093492;28;20525;-75
2023/05/16 02:40:42;;;;;;;5.15;1.40;;;;;;;;;;5093545;28;20028;-75
2023/05/16 02:43:09;;;;;;;8.05;1.55;;;;;;;;;;5079897;28;20028;-75
2023/05/16 02:45:35;;;;;;;8.38;1.77;;;;;;;;;;5093351;28;20410;-75
2023/05/16 02:48:01;;;;;;;9.77;1.30;;;;;;;;;;5093300;28;20032;-75
2023/05/16 02:50:27;;;;;;;9.55;1.10;;;;;;;;;;5084280;28;20458;-75
2023/05/16 02:52:53;;;;;;;9.48;1.48;;;;;;;;;;5093173;28;20028;-75
2023/05/16 02:55:24;;;;;;;6.25;1.48;;;;;;;;;;5093129;28;20093;-75
2023/05/16 02:57:50;;;;;;;5.03;1.30;;;;;;;;;;5093565;28;20058;-75
2023/05/16 03:00:17;;;;;;;9.25;1.15;;;;;;;;;;5085397;28;20463;-75
2023/05/16 03:02:44;;;;;;;7.97;1.40;;;;;;;;;;5073851;28;20367;-75
2023/05/16 03:05:10;;;;;;;6.40;2.03;;;;;;;;;;5092903;28;20012;-75
2023/05/16 03:07:36;;;;;;;6.53;1.50;;;;;;;;;;5092917;28;20553;-74
2023/05/16 03:10:02;;;;;;;10.00;1.45;;;;;;;;;;5092320;28;20639;-75
2023/05/16 03:12:28;;;;;;;12.13;1.50;;;;;;;;;;5092912;28;20565;-75
2023/05/16 03:14:54;;;;;;;6.60;1.25;;;;;;;;;;5093015;28;20047;-75
2023/05/16 03:17:20;;;;;;;4.20;1.23;;;;;;;;;;5091632;28;20086;-75
2023/05/16 03:19:46;;;;;;;6.90;1.55;;;;;;;;;;5092691;28;20028;-75
2023/05/16 03:22:12;;;;;;;5.78;1.65;;;;;;;;;;5081348;28;20110;-75
2023/05/16 03:24:38;;;;;;;7.15;1.35;;;;;;;;;;5092565;28;20096;-75
2023/05/16 03:27:05;;;;;;;6.97;1.35;;;;;;;;;;5092478;28;20108;-75
2023/05/16 03:29:31;;;;;;;7.45;1.38;;;;;;;;;;5092662;28;20048;-75
2023/05/16 03:31:57;;;;;;;6.70;1.17;;;;;;;;;;5092812;28;20028;-75
2023/05/16 03:34:23;;;;;;;5.22;1.30;;;;;;;;;;5092544;28;20035;-75
2023/05/16 03:36:50;;;;;;;6.78;1.38;;;;;;;;;;5092350;28;20024;-75
2023/05/16 03:39:16;;;;;;;5.18;0.80;;;;;;;;;;5074277;28;20020;-75
2023/05/16 03:41:42;;;;;;;7.75;1.38;;;;;;;;;;5092383;28;20030;-75
2023/05/16 03:44:08;;;;;;;4.97;1.67;;;;;;;;;;5092272;28;20374;-75
2023/05/16 03:46:35;;;;;;;6.32;0.90;;;;;;;;;;5092449;28;20173;-75
2023/05/16 03:49:01;;;;;;;4.65;1.10;;;;;;;;;;5092283;28;20023;-75
2023/05/16 03:51:34;;;;;;;4.53;1.33;;;;;;;;;;5092085;28;20363;-75
2023/05/16 03:54:00;;;;;;;8.27;2.47;;;;;;;;;;5092225;28;20028;-75
2023/05/16 03:56:26;;;;;;;3.80;0.90;;;;;;;;;;5092075;28;20031;-75
2023/05/16 03:58:52;;;;;;;3.63;0.95;;;;;;;;;;5092095;28;20114;-75
2023/05/16 04:01:18;;;;;;;6.55;1.00;;;;;;;;;;5091911;28;20112;-75
2023/05/16 04:03:43;;;;;;;4.30;0.75;;;;;;;;;;5092206;28;20024;-75
2023/05/16 04:06:09;;;;;;;7.47;1.45;;;;;;;;;;5092024;28;20019;-75
2023/05/16 04:08:38;;;;;;;6.43;1.40;;;;;;;;;;5092141;28;20063;-75
2023/05/16 04:11:04;;;;;;;6.57;1.10;;;;;;;;;;5086706;28;20021;-75
2023/05/16 04:13:30;;;;;;;1.67;0.82;;;;;;;;;;5084588;28;20498;-75
2023/05/16 04:15:56;;;;;;;4.78;0.70;;;;;;;;;;5091164;28;20030;-75
2023/05/16 04:18:22;;;;;;;3.92;0.77;;;;;;;;;;5070132;28;20068;-75
2023/05/16 04:20:49;;;;;;;6.63;1.25;;;;;;;;;;5071489;28;20078;-75
2023/05/16 04:23:15;;;;;;;11.38;1.90;;;;;;;;;;5075125;28;20548;-75
2023/05/16 04:25:41;;;;;;;3.60;1.00;;;;;;;;;;5062622;28;20464;-75
2023/05/16 04:28:07;;;;;;;6.03;0.98;;;;;;;;;;5070236;28;20035;-75
2023/05/16 04:30:33;;;;;;;3.22;1.02;;;;;;;;;;5075003;28;20067;-75
2023/05/16 04:33:00;;;;;;;2.70;0.70;;;;;;;;;;5063361;28;20021;-75
2023/05/16 04:35:27;;;;;;;6.95;1.60;;;;;;;;;;5074265;28;20025;-76
2023/05/16 04:37:53;;;;;;;9.73;1.20;;;;;;;;;;5074129;28;20028;-75
2023/05/16 04:40:19;;;;;;;8.15;1.42;;;;;;;;;;5059472;28;20021;-75
2023/05/16 04:42:45;;;;;;;7.53;1.00;;;;;;;;;;5073169;28;20056;-75
2023/05/16 04:45:13;;;;;;;3.38;0.93;;;;;;;;;;5083228;28;20027;-75
2023/05/16 04:47:39;;;;;;;3.35;0.57;;;;;;;;;;5076376;28;20060;-76
2023/05/16 04:50:05;;;;;;;6.07;1.00;;;;;;;;;;5055570;28;20033;-75
2023/05/16 04:52:32;;;;;;;6.55;1.23;;;;;;;;;;5073785;28;20029;-75
2023/05/16 04:54:59;;;;;;;5.40;1.40;;;;;;;;;;5075526;28;20439;-75
2023/05/16 04:57:25;;;;;;;3.80;0.70;;;;;;;;;;5075472;28;20082;-75
2023/05/16 04:59:51;;;;;;;5.10;0.95;;;;;;;;;;5075071;28;20028;-75
2023/05/16 05:02:17;;;;;;;4.80;0.80;;;;;;;;;;5075436;28;20025;-75
2023/05/16 05:04:43;;;;;;;4.43;0.85;;;;;;;;;;5061804;28;20433;-75
2023/05/16 05:07:09;;;;;;;2.65;0.70;;;;;;;;;;5075584;28;20410;-75
2023/05/16 05:09:35;;;;;;;4.22;0.63;;;;;;;;;;5074944;28;20032;-75
2023/05/16 05:12:01;;;;;;;3.67;0.52;;;;;;;;;;5074940;28;20026;-76
2023/05/16 05:14:27;;;;;;;6.85;1.00;;;;;;;;;;5074954;28;20400;-75
2023/05/16 05:16:54;;;;;;;5.18;0.88;;;;;;;;;;5080338;28;20532;-75
2023/05/16 05:19:20;;;;;;;4.15;0.85;;;;;;;;;;5095275;28;20036;-75
2023/05/16 05:21:46;;;;;;;6.90;1.05;;;;;;;;;;5094913;28;20028;-75
2023/05/16 05:24:12;;;;;;;7.97;0.85;;;;;;;;;;5088533;28;20024;-75
2023/05/16 05:26:38;;;;;;;4.53;0.80;;;;;;;;;;5088247;28;20367;-75
2023/05/16 05:29:04;;;;;;;5.90;0.95;;;;;;;;;;5094877;28;20035;-75
2023/05/16 05:31:30;;;;;;;5.45;1.08;;;;;;;;;;5094841;28;20024;-75
2023/05/16 05:33:56;;;;;;;9.25;1.13;;;;;;;;;;5094463;28;20036;-75
2023/05/16 05:36:22;;;;;;;7.28;0.90;;;;;;;;;;5094922;28;20024;-75
2023/05/16 05:38:48;;;;;;;3.92;0.70;;;;;;;;;;5094224;28;20032;-76
2023/05/16 05:41:14;;;;;;;4.63;0.98;;;;;;;;;;5076640;28;20592;-75
2023/05/16 05:43:40;;;;;;;3.95;1.90;;;;;;;;;;5094602;28;20090;-75
2023/05/16 05:46:06;;;;;;;3.88;0.57;;;;;;;;;;5094515;28;20031;-75
2023/05/16 05:48:32;;;;;;;4.90;0.77;;;;;;;;;;5094512;28;20016;-76
2023/05/16 05:50:58;;;;;;;4.68;0.65;;;;;;;;;;5094556;28;20085;-76
2023/05/16 05:53:24;;;;;;;4.20;0.70;;;;;;;;;;5094479;28;20100;-75
2023/05/16 05:55:50;;;;;;;5.28;0.75;;;;;;;;;;5094268;28;20099;-76
2023/05/16 05:58:17;;;;;;;4.03;1.02;;;;;;;;;;5094704;28;20036;-76
2023/05/16 06:00:43;;;;;;;5.47;0.85;;;;;;;;;;5094546;28;20470;-76
2023/05/16 06:03:09;;;;;;;3.63;0.70;;;;;;;;;;5073987;28;20013;-76
2023/05/16 06:05:35;;;;;;;5.10;1.05;;;;;;;;;;5087945;28;20107;-76
2023/05/16 06:08:01;;;;;;;4.85;0.82;;;;;;;;;;5094010;28;20116;-76
2023/05/16 06:10:27;;;;;;;2.55;0.60;;;;;;;;;;5075289;28;20028;-76
2023/05/16 06:12:53;;;;;;;2.45;0.77;;;;;;;;;;5093788;28;20030;-76
2023/05/16 06:15:19;;;;;;;3.60;0.77;;;;;;;;;;5093876;28;20051;-76
2023/05/16 06:17:45;;;;;;;2.85;0.40;;;;;;;;;;5090121;28;20101;-76
2023/05/16 06:20:11;;;;;;;4.43;0.55;;;;;;;;;;5090209;28;20040;-76
2023/05/16 06:22:38;;;;;;;1.95;0.70;;;;;;;;;;5093771;28;20043;-76
2023/05/16 06:25:04;;;;;;;5.95;0.80;;;;;;;;;;5085369;28;20028;-76
2023/05/16 06:27:30;;;;;;;3.70;0.40;;;;;;;;;;5082016;28;20039;-76
2023/05/16 06:29:56;;;;;;;1.92;0.55;;;;;;;;;;5093699;28;20050;-76
2023/05/16 06:32:22;;;;;;;4.05;0.60;;;;;;;;;;5094197;28;20043;-76
2023/05/16 06:34:48;;;;;;;7.10;1.00;;;;;;;;;;5075412;28;20020;-76
2023/05/16 06:37:14;;;;;;;2.53;0.30;;;;;;;;;;5093538;28;20108;-76
2023/05/16 06:39:40;;;;;;;3.72;0.55;;;;;;;;;;5084580;28;20029;-76
2023/05/16 06:42:06;;;;;;;2.40;0.45;;;;;;;;;;5093425;28;20024;-76
2023/05/16 06:44:32;;;;;;;4.25;0.93;;;;;;;;;;5092624;28;20030;-76
2023/05/16 06:46:58;;;;;;;4.22;0.75;;;;;;;;;;5074492;28;20020;-76
2023/05/16 06:49:24;;;;;;;1.85;0.73;;;;;;;;;;5089997;28;20028;-76
2023/05/16 06:51:50;;;;;;;2.97;0.65;;;;;;;;;;5079565;28;20366;-76
2023/05/16 06:54:16;;;;;;;3.45;0.82;;;;;;;;;;5093227;28;20028;-76
2023/05/16 06:56:42;;;;;;;6.10;0.60;;;;;;;;;;5092900;28;20020;-76
2023/05/16 06:59:08;;;;;;;5.40;1.00;;;;;;;;;;5092390;28;20119;-76
2023/05/16 07:01:34;;;;;;;4.90;0.75;;;;;;;;;;5093168;28;20478;-76
2023/05/16 07:04:00;;;;;;;3.90;0.63;;;;;;;;;;5093011;28;20020;-76
2023/05/16 07:06:26;;;;;;;5.80;1.10;;;;;;;;;;5093164;28;20455;-76
2023/05/16 07:08:52;;;;;;;1.15;0.60;;;;;;;;;;5092862;28;20024;-76
2023/05/16 07:11:18;;;;;;;1.40;0.47;;;;;;;;;;5093202;28;20020;-76
2023/05/16 07:13:44;;;;;;;7.30;0.68;;;;;;;;;;5088486;28;20053;-76
2023/05/16 07:16:10;;;;;;;5.38;0.80;;;;;;;;;;5092738;28;20024;-76
2023/05/16 07:18:36;;;;;;;6.60;0.70;;;;;;;;;;5070733;28;20793;-77
2023/05/16 07:21:02;;;;;;;5.25;1.15;;;;;;;;;;5072635;28;20104;-76
2023/05/16 07:23:28;;;;;;;5.38;1.13;;;;;;;;;;5072343;28;20566;-76
2023/05/16 07:25:54;;;;;;;3.28;0.77;;;;;;;;;;5072528;28;20107;-76
2023/05/16 07:28:20;;;;;;;3.05;0.40;;;;;;;;;;5072628;28;20093;-76
2023/05/16 07:30:47;;;;;;;1.77;0.47;;;;;;;;;;5071935;28;20021;-76
2023/05/16 07:33:13;;;;;;;5.35;0.50;;;;;;;;;;5072308;28;20077;-76
2023/05/16 07:35:39;;;;;;;4.47;0.50;;;;;;;;;;5070910;28;20099;-76
2023/05/16 07:38:05;;;;;;;4.45;0.70;;;;;;;;;;5072461;28;20040;-76
2023/05/16 07:40:32;;;;;;;4.95;0.75;;;;;;;;;;5061003;28;20029;-76
2023/05/16 07:42:58;;;;;;;4.45;0.60;;;;;;;;;;5055920;28;20032;-76
2023/05/16 07:45:24;;;;;;;4.50;0.77;;;;;;;;;;5069158;28;20074;-76
2023/05/16 07:47:50;;;;;;;2.88;0.73;;;;;;;;;;5072122;28;20040;-76
2023/05/16 07:50:16;;;;;;;4.57;0.50;;;;;;;;;;5072064;28;20028;-76
2023/05/16 07:52:42;;;;;;;6.10;0.80;;;;;;;;;;5070824;28;20452;-76
2023/05/16 07:55:08;;;;;;;1.60;0.55;;;;;;;;;;5070589;28;20035;-76
2023/05/16 07:57:34;;;;;;;3.10;0.65;;;;;;;;;;5072003;28;20043;-76
2023/05/16 08:00:00;;;;;;;3.55;0.95;;;;;;;;;;5072187;28;20025;-76
2023/05/16 08:02:29;;;;;;;2.85;0.50;;;;;;;;;;5071918;28;20602;-77
2023/05/16 08:04:56;;;;;;;6.45;0.73;;;;;;;;;;5068180;28;20507;-77
2023/05/16 08:07:22;;;;;;;6.90;0.95;;;;;;;;;;5072372;28;20669;-77
2023/05/16 08:09:55;;;;;;;2.70;1.02;;;;;;;;;;5072217;28;20028;-77
2023/05/16 08:12:20;;;;;;;5.05;1.02;;;;;;;;;;5068258;28;20028;-75
2023/05/16 08:14:46;;;;;;;3.97;0.60;;;;;;;;;;5072223;28;20025;-76
2023/05/16 08:17:12;;;;;;;5.85;1.15;;;;;;;;;;5079159;28;20688;-75
2023/05/16 08:19:39;;;;;;;4.20;0.85;;;;;;;;;;5092393;28;20024;-75
2023/05/16 08:22:06;;;;;;;2.83;0.50;;;;;;;;;;5092531;28;20017;-75
2023/05/16 08:24:32;;;;;;;4.97;0.85;;;;;;;;;;5092333;28;20028;-75
2023/05/16 08:26:58;;;;;;;2.00;0.40;;;;;;;;;;5092266;28;20027;-75
2023/05/16 08:29:24;;;;;;;3.03;0.43;;;;;;;;;;5092007;28;20103;-75
2023/05/16 08:31:50;;;;;;;4.38;0.57;;;;;;;;;;5092146;28;20028;-75
2023/05/16 08:34:16;;;;;;;3.10;0.40;;;;;;;;;;5092544;28;20028;-75
2023/05/16 08:36:42;;;;;;;2.88;0.90;;;;;;;;;;5092175;28;20032;-75
2023/05/16 08:39:10;;;;;;;7.80;1.25;;;;;;;;;;5091974;28;20028;-75
2023/05/16 08:41:36;;;;;;;5.90;0.80;;;;;;;;;;5092295;28;20026;-75
2023/05/16 08:44:03;;;;;;;10.13;1.00;;;;;;;;;;5092010;28;20108;-75
2023/05/16 08:46:29;;;;;;;4.35;1.20;;;;;;;;;;5073967;28;20048;-75
2023/05/16 08:48:58;;;;;;;3.20;0.50;;;;;;;;;;5091917;28;20081;-75
2023/05/16 08:51:25;;;;;;;2.85;0.52;;;;;;;;;;5091844;28;20409;-75
2023/05/16 08:53:57;;;;;;;4.40;0.63;;;;;;;;;;5091729;28;20027;-75
2023/05/16 08:56:24;;;;;;;3.53;0.43;;;;;;;;;;5091875;28;20056;-75
2023/05/16 08:58:53;;;;;;;5.90;0.90;;;;;;;;;;5091691;28;20032;-75
2023/05/16 09:01:20;;;;;;;3.20;1.05;;;;;;;;;;5083488;28;20054;-75
2023/05/16 09:03:47;;;;;;;3.30;0.60;;;;;;;;;;5091743;28;20602;-75
2023/05/16 09:06:13;;;;;;;4.03;0.80;;;;;;;;;;5091886;28;20033;-75
2023/05/16 09:08:39;;;;;;;4.28;0.82;;;;;;;;;;5094330;28;20024;-76
2023/05/16 09:11:05;;;;;;;5.88;1.00;;;;;;;;;;5077395;28;20616;-75
2023/05/16 09:13:38;;;;;;;2.30;0.57;;;;;;;;;;5095341;28;20024;-75
2023/05/16 09:16:18;;;;;;;2.55;1.10;;;;;;;;;;5095361;28;20474;-75
2023/05/16 09:18:45;;;;;;;3.30;0.73;;;;;;;;;;5094636;28;20048;-75
2023/05/16 09:21:12;;;;;;;6.93;0.65;;;;;;;;;;5095361;28;20289;-75
2023/05/16 09:23:38;;;;;;;2.83;1.20;;;;;;;;;;5095020;28;20390;-75
2023/05/16 09:26:06;;;;;;;5.18;0.90;;;;;;;;;;5095209;28;20025;-75
2023/05/16 09:28:33;;;;;;;1.85;0.50;;;;;;;;;;5095662;28;20580;-75
2023/05/16 09:30:59;;;;;;;5.13;0.80;;;;;;;;;;5094996;28;20043;-75
2023/05/16 09:33:29;;;;;;;6.15;0.80;;;;;;;;;;5082269;28;20591;-75
2023/05/16 09:36:02;;;;;;;8.27;0.85;;;;;;;;;;5115090;28;20400;-75
2023/05/16 09:38:28;;;;;;;4.85;0.50;;;;;;;;;;5115132;28;20515;-75
2023/05/16 09:40:55;;;;;;;4.38;0.65;;;;;;;;;;5113623;28;20450;-75
2023/05/16 09:43:22;;;;;;;5.45;0.70;;;;;;;;;;5094745;28;20383;-75
2023/05/16 09:45:48;;;;;;;1.25;0.30;;;;;;;;;;5095048;28;20028;-76
2023/05/16 09:48:15;;;;;;;8.15;1.02;;;;;;;;;;5094765;28;20032;-76
2023/05/16 09:50:46;;;;;;;3.72;0.50;;;;;;;;;;5094700;28;20028;-76
2023/05/16 09:53:13;;;;;;;4.32;0.80;;;;;;;;;;5094977;28;20024;-77
2023/05/16 09:55:39;;;;;;;5.75;0.90;;;;;;;;;;5109588;28;20031;-77
2023/05/16 09:58:05;;;;;;;4.20;0.60;;;;;;;;;;5115233;28;20053;-76
2023/05/16 10:00:32;;;;;;;2.33;0.50;;;;;;;;;;5112138;28;20032;-76
2023/05/16 10:02:59;;;;;;;3.47;0.55;;;;;;;;;;5094489;28;20494;-77
2023/05/16 10:05:29;;;;;;;2.53;0.57;;;;;;;;;;5094440;28;20020;-77
2023/05/16 10:07:55;;;;;;;1.95;0.38;;;;;;;;;;5094323;28;20073;-76
2023/05/16 10:10:22;;;;;;;3.42;0.65;;;;;;;;;;5094727;28;20157;-76
2023/05/16 10:12:48;;;;;;;2.75;0.70;;;;;;;;;;5098657;28;20024;-77
2023/05/16 10:15:15;;;;;;;8.30;0.80;;;;;;;;;;5096168;28;20023;-77
2023/05/16 10:17:44;;;;;;;3.05;0.40;;;;;;;;;;5111727;28;20043;-77
2023/05/16 10:20:17;;;;;;;4.82;0.73;;;;;;;;;;5094428;28;20072;-77
2023/05/16 10:22:44;;;;;;;5.38;0.57;;;;;;;;;;5093858;28;20074;-77
2023/05/16 10:25:29;;;;;;;2.47;0.52;;;;;;;;;;5093976;28;20086;-77
2023/05/16 10:27:55;;;;;;;2.25;0.60;;;;;;;;;;5073775;28;20111;-77
2023/05/16 10:30:21;;;;;;;1.48;0.40;;;;;;;;;;5075209;28;20025;-76
2023/05/16 10:32:48;;;;;;;7.03;0.75;;;;;;;;;;5093776;28;20444;-77
2023/05/16 10:35:15;;;;;;;3.47;0.63;;;;;;;;;;5093840;28;20627;-77
2023/05/16 10:37:41;;;;;;;12.32;2.30;;;;;;;;;;5093756;28;20032;-76
2023/05/16 10:40:08;;;;;;;5.38;0.95;;;;;;;;;;5093642;28;20051;-76
2023/05/16 10:42:34;;;;;;;5.57;0.85;;;;;;;;;;5093597;28;20016;-76
2023/05/16 10:45:30;;;;;;;4.32;0.70;;;;;;;;;;5093567;28;20030;-76
2023/05/16 10:47:56;;;;;;;3.90;1.98;;;;;;;;;;5088213;28;20036;-76
2023/05/16 10:50:42;;;;;;;3.20;0.77;;;;;;;;;;5106714;28;20046;-76
2023/05/16 10:53:22;;;;;;;4.70;1.00;;;;;;;;;;5093295;28;20020;-76
2023/05/16 10:56:04;;;;;;;3.03;0.60;;;;;;;;;;5093295;28;20020;-76
2023/05/16 10:58:31;;;;;;;6.40;0.47;;;;;;;;;;5093290;28;20107;-76
2023/05/16 11:01:15;;;;;;;3.20;0.75;;;;;;;;;;5093447;28;20073;-76
2023/05/16 11:03:57;;;;;;;4.32;1.00;;;;;;;;;;5085406;28;20522;-76
2023/05/16 11:06:33;;;;;;;3.20;0.63;;;;;;;;;;5087641;28;20021;-76
2023/05/16 11:09:05;;;;;;;3.20;1.52;;;;;;;;;;5074352;28;20040;-76
2023/05/16 11:11:40;;;;;;;7.10;0.90;;;;;;;;;;5078316;28;20025;-75
2023/05/16 11:14:06;;;;;;;1.83;0.50;;;;;;;;;;5089984;28;20028;-74
2023/05/16 11:16:39;;;;;;;2.50;0.40;;;;;;;;;;5091268;28;20020;-75
2023/05/16 11:19:05;;;;;;;3.47;0.75;;;;;;;;;;5092748;28;20754;-74
2023/05/16 11:21:50;;;;;;;2.38;0.73;;;;;;;;;;5092926;28;20066;-74
2023/05/16 11:24:29;;;;;;;2.45;0.60;;;;;;;;;;5092883;28;20023;-74
2023/05/16 11:26:55;;;;;;;4.32;0.60;;;;;;;;;;5093175;28;20455;-75
2023/05/16 11:29:21;;;;;;;2.72;0.80;;;;;;;;;;5074534;28;20122;-75
2023/05/16 11:31:47;;;;;;;5.10;0.70;;;;;;;;;;5091993;28;20367;-75
2023/05/16 11:34:13;;;;;;;7.65;1.23;;;;;;;;;;5092419;28;20024;-75
2023/05/16 11:36:40;;;;;;;5.82;0.88;;;;;;;;;;5092994;28;20036;-75
2023/05/16 11:39:09;;;;;;;2.35;0.75;;;;;;;;;;5092809;28;20115;-75
2023/05/16 11:41:35;;;;;;;2.80;0.65;;;;;;;;;;5092978;28;20024;-75
2023/05/16 11:44:01;;;;;;;6.03;1.00;;;;;;;;;;5092638;28;20077;-75
2023/05/16 11:46:27;;;;;;;6.55;1.25;;;;;;;;;;5092797;28;20046;-75
2023/05/16 11:48:53;;;;;;;4.50;0.85;;;;;;;;;;5092414;28;20032;-75
2023/05/16 11:51:20;;;;;;;3.85;1.05;;;;;;;;;;5092495;28;20024;-75
2023/05/16 11:53:49;;;;;;;3.30;1.17;;;;;;;;;;5092472;28;20032;-75
2023/05/16 11:56:15;;;;;;;1.35;0.70;;;;;;;;;;5092637;28;20394;-75
2023/05/16 11:58:41;;;;;;;2.47;0.75;;;;;;;;;;5092363;28;20028;-75
2023/05/16 12:01:09;;;;;;;3.55;1.08;;;;;;;;;;5092602;28;20024;-76
2023/05/16 12:03:35;;;;;;;4.82;1.10;;;;;;;;;;5084739;28;20360;-75
2023/05/16 12:06:01;;;;;;;3.22;1.00;;;;;;;;;;5084857;28;20320;-75
2023/05/16 12:08:28;;;;;;;2.72;0.60;;;;;;;;;;5092755;28;20020;-76
2023/05/16 12:10:54;;;;;;;3.47;0.82;;;;;;;;;;5092513;28;20016;-75
2023/05/16 12:13:22;;;;;;;1.80;0.75;;;;;;;;;;5092864;28;20064;-75
2023/05/16 12:15:54;;;;;;;7.22;1.80;;;;;;;;;;5092370;28;20016;-75
2023/05/16 12:18:21;;;;;;;5.95;0.90;;;;;;;;;;5091109;28;20052;-75
2023/05/16 12:20:47;;;;;;;3.60;0.77;;;;;;;;;;5092254;28;20080;-75
2023/05/16 12:23:13;;;;;;;2.70;0.70;;;;;;;;;;5092214;28;20091;-75
2023/05/16 12:25:44;;;;;;;1.67;0.90;;;;;;;;;;5092135;28;20035;-76
2023/05/16 12:28:11;;;;;;;6.10;0.98;;;;;;;;;;5092568;28;20059;-76
2023/05/16 12:30:39;;;;;;;5.57;1.08;;;;;;;;;;5088580;28;20024;-76
2023/05/16 12:33:12;;;;;;;4.97;1.30;;;;;;;;;;5071930;28;20028;-76
2023/05/16 12:35:40;;;;;;;3.92;0.98;;;;;;;;;;5084498;28;20032;-76
2023/05/16 12:38:06;;;;;;;5.57;1.10;;;;;;;;;;5091465;28;20086;-76
2023/05/16 12:40:33;;;;;;;3.38;1.00;;;;;;;;;;5092360;28;20024;-76
2023/05/16 12:42:59;;;;;;;3.20;0.90;;;;;;;;;;5093831;28;20028;-76
2023/05/16 12:45:26;;;;;;;3.13;1.30;;;;;;;;;;5079133;28;20025;-76
2023/05/16 12:47:53;;;;;;;2.67;0.55;;;;;;;;;;5076233;28;20107;-76
2023/05/16 12:50:19;;;;;;;7.22;1.15;;;;;;;;;;5076014;28;20028;-77
2023/05/16 12:52:50;;;;;;;3.08;0.90;;;;;;;;;;5075641;28;20027;-76
2023/05/16 12:55:19;;;;;;;4.07;1.20;;;;;;;;;;5075480;28;20048;-76
2023/05/16 12:57:51;;;;;;;1.02;0.68;;;;;;;;;;5075647;28;20044;-76
2023/05/16 13:00:18;;;;;;;3.00;0.95;;;;;;;;;;5075750;28;20037;-76
2023/05/16 13:02:45;;;;;;;2.92;1.52;;;;;;;;;;5092205;28;20081;-76
2023/05/16 13:05:11;;;;;;;4.97;1.52;;;;;;;;;;5096691;28;20024;-76
2023/05/16 13:07:40;;;;;;;3.03;1.45;;;;;;;;;;5096430;28;20036;-76
2023/05/16 13:10:10;;;;;;;3.65;1.35;;;;;;;;;;5096505;28;20056;-76
2023/05/16 13:12:37;;;;;;;3.58;2.05;;;;;;;;;;5096147;28;20020;-76
2023/05/16 13:15:03;;;;;;;5.88;1.77;;;;;;;;;;5096020;28;20366;-76
2023/05/16 13:17:29;;;;;;;3.60;2.03;;;;;;;;;;5091119;28;20431;-76
2023/05/16 13:19:55;;;;;;;4.78;1.80;;;;;;;;;;5074707;28;20137;-76
2023/05/16 13:22:21;;;;;;;6.85;2.20;;;;;;;;;;5095387;28;20024;-76
2023/05/16 13:24:48;;;;;;;6.03;1.98;;;;;;;;;;5095627;28;20039;-76
2023/05/16 13:27:17;;;;;;;5.90;1.92;;;;;;;;;;5095646;28;20012;-76
2023/05/16 13:29:43;;;;;;;5.30;1.70;;;;;;;;;;5083979;28;20024;-76
2023/05/16 13:32:09;;;;;;;5.50;2.00;;;;;;;;;;5091542;28;20122;-76
2023/05/16 13:34:35;;;;;;;4.25;1.58;;;;;;;;;;5095917;28;20078;-76
2023/05/16 13:37:02;;;;;;;6.43;1.80;;;;;;;;;;5095358;28;20379;-76
2023/05/16 13:39:28;;;;;;;5.65;1.50;;;;;;;;;;5095616;28;20036;-76
2023/05/16 13:41:54;;;;;;;4.28;1.50;;;;;;;;;;5095933;28;20471;-76
2023/05/16 13:44:26;;;;;;;4.43;1.25;;;;;;;;;;5095300;28;20031;-76
2023/05/16 13:46:52;;;;;;;1.23;0.82;;;;;;;;;;5095197;28;20377;-75
2023/05/16 13:49:18;;;;;;;2.33;1.48;;;;;;;;;;5095160;28;20368;-76
2023/05/16 13:51:44;;;;;;;3.15;1.23;;;;;;;;;;5094850;28;20035;-75
2023/05/16 13:54:10;;;;;;;2.35;1.08;;;;;;;;;;5094369;28;20052;-76
2023/05/16 13:56:36;;;;;;;2.85;1.02;;;;;;;;;;5094865;28;20542;-76
2023/05/16 13:59:02;;;;;;;2.90;1.48;;;;;;;;;;5084367;28;20032;-76
2023/05/16 14:01:28;;;;;;;4.68;1.52;;;;;;;;;;5093799;28;20020;-76
2023/05/16 14:03:55;;;;;;;4.38;1.48;;;;;;;;;;5094825;28;20028;-76
2023/05/16 14:06:21;;;;;;;4.68;1.40;;;;;;;;;;5095002;28;20028;-76
2023/05/16 14:08:47;;;;;;;4.60;1.60;;;;;;;;;;5094630;28;20107;-76
2023/05/16 14:11:13;;;;;;;3.88;1.25;;;;;;;;;;5094670;28;20023;-76
2023/05/16 14:13:39;;;;;;;5.28;1.55;;;;;;;;;;5094680;28;20036;-76
2023/05/16 14:16:06;;;;;;;3.38;1.50;;;;;;;;;;5095365;28;20024;-76
2023/05/16 14:18:32;;;;;;;2.17;1.00;;;;;;;;;;5093280;28;20057;-76
2023/05/16 14:20:58;;;;;;;3.33;1.27;;;;;;;;;;5093439;28;20099;-76
2023/05/16 14:23:30;;;;;;;6.07;1.13;;;;;;;;;;5074294;28;20141;-76
2023/05/16 14:25:56;;;;;;;3.40;1.60;;;;;;;;;;5076827;28;20367;-76
2023/05/16 14:28:22;;;;;;;4.18;1.27;;;;;;;;;;5094426;28;20451;-75
2023/05/16 14:30:55;;;;;;;4.30;1.50;;;;;;;;;;5094711;28;20024;-75
2023/05/16 14:33:22;;;;;;;4.78;1.70;;;;;;;;;;5114242;28;20031;-77
2023/05/16 14:35:48;;;;;;;6.38;1.00;;;;;;;;;;5112165;28;20066;-75
2023/05/16 14:38:15;;;;;;;5.78;0.88;;;;;;;;;;5093961;28;20450;-75
2023/05/16 14:40:41;;;;;;;2.90;0.80;;;;;;;;;;5093329;28;20031;-76
2023/05/16 14:43:07;;;;;;;3.22;0.70;;;;;;;;;;5093443;28;20028;-76
2023/05/16 14:45:33;;;;;;;2.63;0.98;;;;;;;;;;5093782;28;20483;-76